createdAt,value
2022-10-07T00:00:03.169Z,74123.53
2022-10-07T00:00:36.430Z,74125.53
2022-10-07T00:01:09.043Z,74123.53
2022-10-07T00:01:44.000Z,74119.56
2022-10-07T00:02:16.324Z,74123.53
2022-10-07T00:02:48.612Z,74127.53
2022-10-07T00:03:24.644Z,74127.53
2022-10-07T00:03:56.925Z,74119.56
2022-10-07T00:04:29.140Z,74127.53
2022-10-07T00:05:03.921Z,74121.56
2022-10-07T00:05:38.737Z,74125.53
2022-10-07T00:06:13.359Z,74121.56
2022-10-07T00:06:48.511Z,74123.53
2022-10-07T00:07:21.033Z,74119.56
2022-10-07T00:07:55.141Z,74129.53
2022-10-07T00:08:30.030Z,74125.53
2022-10-07T00:09:02.538Z,74125.53
2022-10-07T00:09:34.728Z,74119.56
2022-10-07T00:10:10.779Z,74121.56
2022-10-07T00:10:43.427Z,74123.53
2022-10-07T00:11:17.441Z,74121.56
2022-10-07T00:11:49.648Z,74123.53
2022-10-07T00:12:24.480Z,74131.53
2022-10-07T00:12:57.176Z,74119.56
2022-10-07T00:13:29.405Z,74119.56
2022-10-07T00:14:06.195Z,74123.53
2022-10-07T00:14:39.568Z,74121.56
2022-10-07T00:15:11.816Z,74123.53
2022-10-07T00:15:46.685Z,74117.56
2022-10-07T00:16:21.185Z,74123.53
2022-10-07T00:16:53.478Z,74121.56
2022-10-07T00:17:28.369Z,74121.56
2022-10-07T00:18:00.572Z,74117.56
2022-10-07T00:18:33.212Z,74115.56
2022-10-07T00:19:10.312Z,74115.56
2022-10-07T00:19:42.830Z,74119.56
2022-10-07T00:20:15.235Z,74119.56
2022-10-07T00:20:50.056Z,74109.56
2022-10-07T00:21:25.074Z,74121.56
2022-10-07T00:21:57.285Z,74115.56
2022-10-07T00:22:29.588Z,74113.56
2022-10-07T00:23:04.416Z,74111.56
2022-10-07T00:23:36.958Z,74111.56
2022-10-07T00:24:10.441Z,74111.56
2022-10-07T00:24:45.352Z,74111.56
2022-10-07T00:25:17.560Z,74113.56
2022-10-07T00:25:49.765Z,74111.56
2022-10-07T00:26:27.879Z,74111.56
2022-10-07T00:27:00.091Z,74109.56
2022-10-07T00:27:32.317Z,74107.56
2022-10-07T00:28:04.950Z,74107.56
2022-10-07T00:28:40.024Z,74115.56
2022-10-07T00:29:12.307Z,74111.56
2022-10-07T00:29:44.564Z,74107.56
2022-10-07T00:30:19.808Z,74107.56
2022-10-07T00:30:57.293Z,74111.56
2022-10-07T00:31:31.256Z,74107.56
2022-10-07T00:32:06.088Z,74107.56
2022-10-07T00:32:38.329Z,74109.56
2022-10-07T00:33:10.548Z,74107.56
2022-10-07T00:33:43.192Z,74097.59
2022-10-07T00:34:18.008Z,74103.56
2022-10-07T00:34:50.224Z,74101.59
2022-10-07T00:35:22.467Z,74095.59
2022-10-07T00:35:57.377Z,74103.56
2022-10-07T00:36:33.540Z,74091.59
2022-10-07T00:37:05.782Z,74095.59
2022-10-07T00:37:43.130Z,74095.59
2022-10-07T00:38:19.139Z,74095.59
2022-10-07T00:38:52.428Z,74095.59
2022-10-07T00:39:24.669Z,74099.59
2022-10-07T00:39:59.498Z,74095.59
2022-10-07T00:40:31.968Z,74091.59
2022-10-07T00:41:04.751Z,74095.59
2022-10-07T00:41:41.782Z,74091.59
2022-10-07T00:42:14.465Z,74089.59
2022-10-07T00:42:46.707Z,74087.59
2022-10-07T00:43:26.431Z,74087.59
2022-10-07T00:44:00.218Z,74083.63
2022-10-07T00:44:41.832Z,74089.59
2022-10-07T00:45:18.169Z,74079.63
2022-10-07T00:45:50.706Z,74079.63
2022-10-07T00:46:29.423Z,74081.63
2022-10-07T00:47:06.242Z,74083.63
2022-10-07T00:47:38.551Z,74083.63
2022-10-07T00:48:16.558Z,74077.63
2022-10-07T00:48:49.072Z,74083.63
2022-10-07T00:49:21.619Z,74079.63
2022-10-07T00:49:58.805Z,74079.63
2022-10-07T00:50:31.139Z,74077.63
2022-10-07T00:51:07.617Z,74079.63
2022-10-07T00:51:43.533Z,74079.63
2022-10-07T00:52:16.727Z,74079.63
2022-10-07T00:52:52.148Z,74075.63
2022-10-07T00:53:28.937Z,74075.63
2022-10-07T00:54:02.889Z,74075.63
2022-10-07T00:54:36.382Z,74075.63
2022-10-07T00:55:13.968Z,74069.63
2022-10-07T00:55:46.198Z,74071.63
2022-10-07T00:56:18.811Z,74067.63
2022-10-07T00:56:51.905Z,74065.66
2022-10-07T00:57:28.036Z,74069.63
2022-10-07T00:58:03.661Z,74069.63
2022-10-07T00:58:39.190Z,74075.63
2022-10-07T00:59:12.741Z,74067.63
2022-10-07T00:59:48.162Z,74065.66
2022-10-07T01:00:23.531Z,74063.66
2022-10-07T01:00:55.892Z,74063.66
2022-10-07T01:01:31.368Z,74069.63
2022-10-07T01:02:04.009Z,74069.63
2022-10-07T01:02:36.641Z,74067.63
2022-10-07T01:03:11.643Z,74067.63
2022-10-07T01:03:44.114Z,74067.63
2022-10-07T01:04:17.415Z,74061.66
2022-10-07T01:04:52.974Z,74059.66
2022-10-07T01:05:25.240Z,74061.66
2022-10-07T01:05:57.509Z,74059.66
2022-10-07T01:06:36.022Z,74065.66
2022-10-07T01:07:08.362Z,74059.66
2022-10-07T01:07:40.998Z,74063.66
2022-10-07T01:08:18.042Z,74059.66
2022-10-07T01:08:52.903Z,74063.66
2022-10-07T01:09:25.326Z,74055.66
2022-10-07T01:10:01.169Z,74059.66
2022-10-07T01:10:39.538Z,74059.66
2022-10-07T01:11:19.377Z,74059.66
2022-10-07T01:11:59.972Z,74059.66
2022-10-07T01:12:40.166Z,74055.66
2022-10-07T01:13:19.015Z,74059.66
2022-10-07T01:14:01.310Z,74063.66
2022-10-07T01:14:43.033Z,74055.66
2022-10-07T01:15:24.982Z,74059.66
2022-10-07T01:16:04.585Z,74059.66
2022-10-07T01:16:42.330Z,74055.66
2022-10-07T01:17:22.390Z,74057.66
2022-10-07T01:18:04.681Z,74059.66
2022-10-07T01:18:41.632Z,74055.66
2022-10-07T01:19:35.978Z,74055.66
2022-10-07T01:20:24.099Z,74057.66
2022-10-07T01:21:03.634Z,74055.66
2022-10-07T01:21:46.426Z,74057.66
2022-10-07T01:22:26.281Z,74049.66
2022-10-07T01:23:11.241Z,74055.66
2022-10-07T01:23:56.587Z,74055.66
2022-10-07T01:24:39.870Z,74051.66
2022-10-07T01:25:24.362Z,74051.66
2022-10-07T01:26:23.514Z,74049.66
2022-10-07T01:27:01.984Z,74047.66
2022-10-07T01:27:36.329Z,74047.66
2022-10-07T01:28:14.967Z,74047.66
2022-10-07T01:28:51.073Z,74053.66
2022-10-07T01:29:28.961Z,74051.66
2022-10-07T01:30:06.772Z,74051.66
2022-10-07T01:30:42.670Z,74047.66
2022-10-07T01:31:19.093Z,74051.66
2022-10-07T01:31:57.966Z,74055.66
2022-10-07T01:32:32.642Z,74049.66
2022-10-07T01:33:11.919Z,74053.66
2022-10-07T01:33:47.321Z,74051.66
2022-10-07T01:34:21.082Z,74049.66
2022-10-07T01:34:55.761Z,74047.66
2022-10-07T01:35:35.234Z,74045.69
2022-10-07T01:36:10.475Z,74051.66
2022-10-07T01:36:43.649Z,74049.66
2022-10-07T01:37:19.689Z,74043.69
2022-10-07T01:37:55.247Z,74047.66
2022-10-07T01:38:28.701Z,74047.66
2022-10-07T01:39:07.265Z,74045.69
2022-10-07T01:39:43.234Z,74039.69
2022-10-07T01:40:18.037Z,74045.69
2022-10-07T01:40:55.309Z,74039.69
2022-10-07T01:41:27.965Z,74043.69
2022-10-07T01:42:04.717Z,74041.69
2022-10-07T01:42:39.718Z,74039.69
2022-10-07T01:43:14.933Z,74035.69
2022-10-07T01:43:48.216Z,74041.69
2022-10-07T01:44:23.222Z,74039.69
2022-10-07T01:44:57.955Z,74037.69
2022-10-07T01:45:32.777Z,74039.69
2022-10-07T01:46:09.894Z,74037.69
2022-10-07T01:46:43.630Z,74035.69
2022-10-07T01:47:17.188Z,74027.72
2022-10-07T01:47:52.277Z,74035.69
2022-10-07T01:48:24.801Z,74027.72
2022-10-07T01:48:57.273Z,74031.69
2022-10-07T01:49:32.179Z,74023.72
2022-10-07T01:50:11.998Z,74027.72
2022-10-07T01:50:46.542Z,74035.69
2022-10-07T01:51:24.914Z,74031.69
2022-10-07T01:52:13.053Z,74031.69
2022-10-07T01:53:03.530Z,74035.69
2022-10-07T01:53:49.913Z,74035.69
2022-10-07T01:54:29.361Z,74033.69
2022-10-07T01:55:35.257Z,74029.72
2022-10-07T01:56:20.155Z,74031.69
2022-10-07T01:57:13.722Z,74025.72
2022-10-07T01:57:54.367Z,74031.69
2022-10-07T01:58:53.443Z,74027.72
2022-10-07T01:59:45.686Z,74027.72
2022-10-07T02:00:18.239Z,74029.72
2022-10-07T02:00:59.309Z,74027.72
2022-10-07T02:01:36.670Z,74023.72
2022-10-07T02:02:16.383Z,74023.72
2022-10-07T02:02:58.386Z,74025.72
2022-10-07T02:03:49.765Z,74027.72
2022-10-07T02:04:31.230Z,74023.72
2022-10-07T02:05:16.314Z,74025.72
2022-10-07T02:05:52.825Z,74027.72
2022-10-07T02:06:34.314Z,74023.72
2022-10-07T02:07:21.177Z,74025.72
2022-10-07T02:08:04.927Z,74029.72
2022-10-07T02:08:40.714Z,74023.72
2022-10-07T02:09:25.821Z,74027.72
2022-10-07T02:10:09.598Z,74029.72
2022-10-07T02:10:48.674Z,74027.72
2022-10-07T02:11:28.181Z,74027.72
2022-10-07T02:12:13.339Z,74025.72
2022-10-07T02:12:51.361Z,74025.72
2022-10-07T02:13:29.866Z,74027.72
2022-10-07T02:14:05.875Z,74035.69
2022-10-07T02:14:44.442Z,74027.72
2022-10-07T02:15:21.545Z,74027.72
2022-10-07T02:15:59.981Z,74027.72
2022-10-07T02:16:34.770Z,74025.72
2022-10-07T02:17:11.430Z,74027.72
2022-10-07T02:17:54.153Z,74027.72
2022-10-07T02:18:26.729Z,74021.72
2022-10-07T02:19:01.169Z,74019.72
2022-10-07T02:19:39.431Z,74023.72
2022-10-07T02:20:13.299Z,74019.72
2022-10-07T02:20:47.967Z,74021.72
2022-10-07T02:21:26.057Z,74021.72
2022-10-07T02:21:59.584Z,74019.72
2022-10-07T02:22:32.141Z,74021.72
2022-10-07T02:23:08.933Z,74021.72
2022-10-07T02:23:42.382Z,74023.72
2022-10-07T02:24:16.220Z,74021.72
2022-10-07T02:24:54.557Z,74019.72
2022-10-07T02:25:33.278Z,74023.72
2022-10-07T02:26:06.278Z,74021.72
2022-10-07T02:26:43.391Z,74017.72
2022-10-07T02:27:22.973Z,74023.72
2022-10-07T02:27:58.330Z,74019.72
2022-10-07T02:28:36.109Z,74013.72
2022-10-07T02:29:10.556Z,74011.72
2022-10-07T02:29:46.079Z,74017.72
2022-10-07T02:30:22.834Z,74017.72
2022-10-07T02:30:57.323Z,74011.72
2022-10-07T02:31:31.762Z,74005.75
2022-10-07T02:32:10.193Z,73995.75
2022-10-07T02:32:47.857Z,73979.78
2022-10-07T02:33:21.181Z,73975.78
2022-10-07T02:33:57.747Z,73965.81
2022-10-07T02:34:31.063Z,73955.84
2022-10-07T02:35:08.162Z,73951.84
2022-10-07T02:35:48.365Z,73943.84
2022-10-07T02:36:25.590Z,73935.88
2022-10-07T02:37:01.654Z,73935.88
2022-10-07T02:37:37.983Z,73927.88
2022-10-07T02:38:15.991Z,73919.91
2022-10-07T02:38:50.952Z,73923.88
2022-10-07T02:39:23.240Z,73917.91
2022-10-07T02:40:01.035Z,73911.91
2022-10-07T02:40:36.678Z,73907.91
2022-10-07T02:41:13.260Z,73905.91
2022-10-07T02:41:53.270Z,73903.91
2022-10-07T02:42:35.874Z,73899.94
2022-10-07T02:43:12.270Z,73895.94
2022-10-07T02:43:49.870Z,73891.94
2022-10-07T02:44:27.882Z,73893.94
2022-10-07T02:45:05.176Z,73895.94
2022-10-07T02:45:43.578Z,73887.94
2022-10-07T02:46:20.400Z,73891.94
2022-10-07T02:46:55.201Z,73891.94
2022-10-07T02:47:33.496Z,73889.94
2022-10-07T02:48:10.938Z,73887.94
2022-10-07T02:48:46.826Z,73883.94
2022-10-07T02:49:24.705Z,73875.97
2022-10-07T02:50:01.393Z,73883.94
2022-10-07T02:50:38.163Z,73877.97
2022-10-07T02:51:21.029Z,73879.97
2022-10-07T02:51:58.697Z,73883.94
2022-10-07T02:52:35.648Z,73879.97
2022-10-07T02:53:08.746Z,73879.97
2022-10-07T02:53:42.296Z,73879.97
2022-10-07T02:54:20.874Z,73879.97
2022-10-07T02:54:59.080Z,73871.97
2022-10-07T02:55:36.183Z,73879.97
2022-10-07T02:56:08.747Z,73871.97
2022-10-07T02:56:41.678Z,73875.97
2022-10-07T02:57:18.755Z,73881.97
2022-10-07T02:57:57.913Z,73875.97
2022-10-07T02:58:30.812Z,73871.97
2022-10-07T02:59:04.597Z,73871.97
2022-10-07T02:59:40.827Z,73867.97
2022-10-07T03:00:14.378Z,73867.97
2022-10-07T03:00:58.165Z,73871.97
2022-10-07T03:01:35.538Z,73867.97
2022-10-07T03:02:12.738Z,73864.00
2022-10-07T03:02:48.373Z,73862.00
2022-10-07T03:03:23.415Z,73867.97
2022-10-07T03:04:03.375Z,73871.97
2022-10-07T03:04:36.509Z,73867.97
2022-10-07T03:05:12.461Z,73867.97
2022-10-07T03:05:45.402Z,73866.00
2022-10-07T03:06:19.265Z,73866.00
2022-10-07T03:06:54.252Z,73867.97
2022-10-07T03:07:27.318Z,73866.00
2022-10-07T03:08:01.570Z,73867.97
2022-10-07T03:08:36.517Z,73867.97
2022-10-07T03:09:09.175Z,73864.00
2022-10-07T03:09:42.204Z,73864.00
2022-10-07T03:10:17.041Z,73864.00
2022-10-07T03:10:52.027Z,73864.00
2022-10-07T03:11:24.504Z,73864.00
2022-10-07T03:11:56.787Z,73860.00
2022-10-07T03:12:31.827Z,73864.00
2022-10-07T03:13:06.733Z,73860.00
2022-10-07T03:13:41.574Z,73871.97
2022-10-07T03:14:16.413Z,73867.97
2022-10-07T03:14:50.054Z,73867.97
2022-10-07T03:15:24.150Z,73866.00
2022-10-07T03:16:01.316Z,73856.00
2022-10-07T03:16:35.109Z,73860.00
2022-10-07T03:17:07.416Z,73860.00
2022-10-07T03:17:40.146Z,73864.00
2022-10-07T03:18:28.752Z,73858.00
2022-10-07T03:19:14.901Z,73860.00
2022-10-07T03:19:59.502Z,73860.00
2022-10-07T03:20:32.744Z,73864.00
2022-10-07T03:21:08.737Z,73860.00
2022-10-07T03:21:41.513Z,73864.00
2022-10-07T03:22:14.802Z,73864.00
2022-10-07T03:22:51.477Z,73866.00
2022-10-07T03:23:25.202Z,73852.00
2022-10-07T03:23:57.550Z,73850.00
2022-10-07T03:24:37.802Z,73844.03
2022-10-07T03:25:10.247Z,73836.03
2022-10-07T03:25:42.987Z,73828.06
2022-10-07T03:26:18.142Z,73828.06
2022-10-07T03:26:54.323Z,73820.06
2022-10-07T03:27:27.575Z,73816.06
2022-10-07T03:27:59.859Z,73812.09
2022-10-07T03:28:38.676Z,73804.09
2022-10-07T03:29:12.101Z,73796.09
2022-10-07T03:29:44.830Z,73790.13
2022-10-07T03:30:24.639Z,73780.13
2022-10-07T03:31:05.016Z,73772.16
2022-10-07T03:31:37.790Z,73768.16
2022-10-07T03:32:12.717Z,73764.16
2022-10-07T03:32:45.137Z,73764.16
2022-10-07T03:33:18.775Z,73752.19
2022-10-07T03:33:53.757Z,73748.19
2022-10-07T03:34:27.424Z,73744.19
2022-10-07T03:34:59.943Z,73740.22
2022-10-07T03:35:35.215Z,73740.22
2022-10-07T03:36:08.952Z,73732.22
2022-10-07T03:36:45.558Z,73732.22
2022-10-07T03:37:18.217Z,73738.22
2022-10-07T03:37:51.256Z,73730.22
2022-10-07T03:38:26.510Z,73728.22
2022-10-07T03:38:58.974Z,73728.22
2022-10-07T03:39:31.732Z,73732.22
2022-10-07T03:40:08.014Z,73736.22
2022-10-07T03:40:40.445Z,73744.19
2022-10-07T03:41:12.931Z,73744.19
2022-10-07T03:41:49.067Z,73748.19
2022-10-07T03:42:21.947Z,73760.16
2022-10-07T03:42:54.157Z,73762.16
2022-10-07T03:43:28.979Z,73774.16
2022-10-07T03:44:03.999Z,73772.16
2022-10-07T03:44:36.316Z,73780.13
2022-10-07T03:45:12.014Z,73790.13
2022-10-07T03:45:44.890Z,73796.09
2022-10-07T03:46:19.739Z,73800.09
2022-10-07T03:46:55.413Z,73800.09
2022-10-07T03:47:30.578Z,73804.09
2022-10-07T03:48:03.429Z,73812.09
2022-10-07T03:48:38.351Z,73816.06
2022-10-07T03:49:11.170Z,73820.06
2022-10-07T03:49:43.409Z,73816.06
2022-10-07T03:50:18.810Z,73816.06
2022-10-07T03:50:51.142Z,73824.06
2022-10-07T03:51:24.534Z,73828.06
2022-10-07T03:51:59.541Z,73828.06
2022-10-07T03:52:32.100Z,73836.03
2022-10-07T03:53:05.128Z,73832.03
2022-10-07T03:53:38.621Z,73828.06
2022-10-07T03:54:13.553Z,73836.03
2022-10-07T03:54:46.001Z,73828.06
2022-10-07T03:55:18.965Z,73842.03
2022-10-07T03:55:51.373Z,73844.03
2022-10-07T03:56:26.393Z,73844.03
2022-10-07T03:56:58.938Z,73840.03
2022-10-07T03:57:47.089Z,73844.03
2022-10-07T03:58:22.229Z,73848.03
2022-10-07T03:58:55.648Z,73844.03
2022-10-07T03:59:33.219Z,73844.03
2022-10-07T04:00:09.375Z,73850.00
2022-10-07T04:00:47.830Z,73844.03
2022-10-07T04:01:22.819Z,73848.03
2022-10-07T04:02:03.534Z,73848.03
2022-10-07T04:02:41.444Z,73856.00
2022-10-07T04:03:15.882Z,73852.00
2022-10-07T04:03:56.665Z,73852.00
2022-10-07T04:04:34.262Z,73856.00
2022-10-07T04:05:07.109Z,73852.00
2022-10-07T04:05:42.110Z,73860.00
2022-10-07T04:06:14.922Z,73856.00
2022-10-07T04:06:49.873Z,73854.00
2022-10-07T04:07:24.963Z,73850.00
2022-10-07T04:08:06.395Z,73852.00
2022-10-07T04:08:44.988Z,73852.00
2022-10-07T04:09:18.270Z,73856.00
2022-10-07T04:09:50.558Z,73852.00
2022-10-07T04:10:26.730Z,73852.00
2022-10-07T04:11:02.695Z,73848.03
2022-10-07T04:11:40.698Z,73856.00
2022-10-07T04:12:14.185Z,73852.00
2022-10-07T04:12:48.753Z,73852.00
2022-10-07T04:13:27.058Z,73848.03
2022-10-07T04:14:00.880Z,73852.00
2022-10-07T04:14:37.166Z,73852.00
2022-10-07T04:15:13.874Z,73850.00
2022-10-07T04:15:48.921Z,73852.00
2022-10-07T04:16:24.497Z,73844.03
2022-10-07T04:17:00.469Z,73854.00
2022-10-07T04:17:33.362Z,73852.00
2022-10-07T04:18:07.210Z,73846.03
2022-10-07T04:18:43.732Z,73848.03
2022-10-07T04:19:19.878Z,73848.03
2022-10-07T04:19:55.098Z,73848.03
2022-10-07T04:20:31.743Z,73848.03
2022-10-07T04:21:05.392Z,73840.03
2022-10-07T04:21:39.112Z,73840.03
2022-10-07T04:22:17.221Z,73842.03
2022-10-07T04:22:51.551Z,73848.03
2022-10-07T04:23:27.402Z,73840.03
2022-10-07T04:24:03.698Z,73844.03
2022-10-07T04:24:36.895Z,73842.03
2022-10-07T04:25:27.109Z,73844.03
2022-10-07T04:26:00.200Z,73842.03
2022-10-07T04:26:35.075Z,73840.03
2022-10-07T04:27:07.730Z,73844.03
2022-10-07T04:27:51.631Z,73844.03
2022-10-07T04:28:29.184Z,73844.03
2022-10-07T04:29:12.879Z,73838.03
2022-10-07T04:29:51.306Z,73838.03
2022-10-07T04:30:25.185Z,73840.03
2022-10-07T04:31:00.141Z,73836.03
2022-10-07T04:31:38.831Z,73836.03
2022-10-07T04:32:11.333Z,73836.03
2022-10-07T04:32:46.984Z,73838.03
2022-10-07T04:33:19.792Z,73836.03
2022-10-07T04:33:54.789Z,73838.03
2022-10-07T04:34:31.770Z,73840.03
2022-10-07T04:35:05.262Z,73844.03
2022-10-07T04:35:41.539Z,73842.03
2022-10-07T04:36:14.715Z,73836.03
2022-10-07T04:37:05.217Z,73840.03
2022-10-07T04:37:37.642Z,73836.03
2022-10-07T04:38:11.047Z,73838.03
2022-10-07T04:38:51.769Z,73828.06
2022-10-07T04:39:55.972Z,73838.03
2022-10-07T04:40:22.550Z,73838.03
2022-10-07T04:41:05.056Z,73832.03
2022-10-07T04:41:38.005Z,73842.03
2022-10-07T04:42:30.829Z,73842.03
2022-10-07T04:43:18.157Z,73840.03
2022-10-07T04:43:57.651Z,73844.03
2022-10-07T04:44:36.213Z,73840.03
2022-10-07T04:45:15.646Z,73836.03
2022-10-07T04:45:56.172Z,73838.03
2022-10-07T04:46:28.900Z,73838.03
2022-10-07T04:47:13.068Z,73836.03
2022-10-07T04:47:45.801Z,73834.03
2022-10-07T04:48:20.237Z,73838.03
2022-10-07T04:48:55.489Z,73838.03
2022-10-07T04:49:30.651Z,73832.03
2022-10-07T04:50:06.332Z,73836.03
2022-10-07T04:50:41.461Z,73834.03
2022-10-07T04:51:14.267Z,73836.03
2022-10-07T04:51:50.939Z,73824.06
2022-10-07T04:52:24.069Z,73834.03
2022-10-07T04:52:59.648Z,73828.06
2022-10-07T04:53:39.237Z,73836.03
2022-10-07T04:54:13.577Z,73826.06
2022-10-07T04:54:57.138Z,73828.06
2022-10-07T04:55:32.041Z,73820.06
2022-10-07T04:56:05.415Z,73824.06
2022-10-07T04:56:38.118Z,73826.06
2022-10-07T04:57:16.362Z,73824.06
2022-10-07T04:57:50.444Z,73824.06
2022-10-07T04:58:22.757Z,73820.06
2022-10-07T04:58:58.573Z,73818.06
2022-10-07T04:59:31.781Z,73820.06
2022-10-07T05:00:06.194Z,73816.06
2022-10-07T05:00:47.802Z,73820.06
2022-10-07T05:01:20.355Z,73826.06
2022-10-07T05:01:53.587Z,73836.03
2022-10-07T05:02:29.065Z,73848.03
2022-10-07T05:03:01.576Z,73860.00
2022-10-07T05:03:39.357Z,73858.00
2022-10-07T05:04:11.995Z,73867.97
2022-10-07T05:04:45.145Z,73871.97
2022-10-07T05:05:20.642Z,73875.97
2022-10-07T05:05:54.113Z,73875.97
2022-10-07T05:06:27.767Z,73883.94
2022-10-07T05:07:02.609Z,73889.94
2022-10-07T05:07:36.289Z,73891.94
2022-10-07T05:08:09.001Z,73895.94
2022-10-07T05:08:45.638Z,73893.94
2022-10-07T05:09:19.341Z,73895.94
2022-10-07T05:09:52.990Z,73899.94
2022-10-07T05:10:28.001Z,73907.91
2022-10-07T05:11:01.437Z,73903.91
2022-10-07T05:11:37.712Z,73907.91
2022-10-07T05:12:25.853Z,73905.91
2022-10-07T05:13:00.422Z,73907.91
2022-10-07T05:13:37.371Z,73911.91
2022-10-07T05:14:11.538Z,73903.91
2022-10-07T05:14:43.895Z,73907.91
2022-10-07T05:15:22.055Z,73915.91
2022-10-07T05:16:04.268Z,73913.91
2022-10-07T05:16:39.915Z,73913.91
2022-10-07T05:17:13.143Z,73911.91
2022-10-07T05:17:47.792Z,73923.88
2022-10-07T05:18:27.309Z,73915.91
2022-10-07T05:19:02.157Z,73921.88
2022-10-07T05:19:35.304Z,73915.91
2022-10-07T05:20:12.982Z,73927.88
2022-10-07T05:20:46.614Z,73925.88
2022-10-07T05:21:19.498Z,73923.88
2022-10-07T05:21:58.909Z,73923.88
2022-10-07T05:22:34.130Z,73919.91
2022-10-07T05:23:06.979Z,73915.91
2022-10-07T05:23:42.049Z,73915.91
2022-10-07T05:24:17.584Z,73919.91
2022-10-07T05:24:49.961Z,73919.91
2022-10-07T05:25:28.799Z,73915.91
2022-10-07T05:26:08.297Z,73921.88
2022-10-07T05:26:44.683Z,73925.88
2022-10-07T05:27:17.066Z,73917.91
2022-10-07T05:27:54.077Z,73923.88
2022-10-07T05:28:30.629Z,73923.88
2022-10-07T05:29:03.709Z,73919.91
2022-10-07T05:30:07.744Z,73911.91
2022-10-07T05:30:43.851Z,73915.91
2022-10-07T05:31:18.771Z,73911.91
2022-10-07T05:32:00.873Z,73919.91
2022-10-07T05:32:38.899Z,73915.91
2022-10-07T05:33:11.265Z,73919.91
2022-10-07T05:33:46.249Z,73923.88
2022-10-07T05:34:21.317Z,73923.88
2022-10-07T05:34:55.119Z,73913.91
2022-10-07T05:35:27.371Z,73919.91
2022-10-07T05:36:02.418Z,73915.91
2022-10-07T05:36:35.122Z,73923.88
2022-10-07T05:37:15.297Z,73915.91
2022-10-07T05:37:51.232Z,73915.91
2022-10-07T05:38:24.430Z,73923.88
2022-10-07T05:39:00.119Z,73921.88
2022-10-07T05:39:41.810Z,73925.88
2022-10-07T05:40:22.089Z,73919.91
2022-10-07T05:41:01.706Z,73921.88
2022-10-07T05:41:45.419Z,73915.91
2022-10-07T05:42:19.890Z,73921.88
2022-10-07T05:43:02.441Z,73923.88
2022-10-07T05:43:37.609Z,73923.88
2022-10-07T05:44:11.633Z,73915.91
2022-10-07T05:44:46.557Z,73919.91
2022-10-07T05:45:19.704Z,73925.88
2022-10-07T05:46:01.150Z,73927.88
2022-10-07T05:46:40.267Z,73917.91
2022-10-07T05:47:13.222Z,73923.88
2022-10-07T05:47:47.069Z,73915.91
2022-10-07T05:48:22.171Z,73913.91
2022-10-07T05:48:54.825Z,73923.88
2022-10-07T05:49:30.910Z,73919.91
2022-10-07T05:50:06.977Z,73923.88
2022-10-07T05:50:40.062Z,73915.91
2022-10-07T05:51:13.752Z,73917.91
2022-10-07T05:51:49.346Z,73919.91
2022-10-07T05:52:22.172Z,73925.88
2022-10-07T05:52:55.826Z,73923.88
2022-10-07T05:53:31.766Z,73923.88
2022-10-07T05:54:05.526Z,73921.88
2022-10-07T05:54:46.150Z,73923.88
2022-10-07T05:55:19.494Z,73923.88
2022-10-07T05:55:51.980Z,73923.88
2022-10-07T05:56:27.134Z,73923.88
2022-10-07T05:57:00.822Z,73915.91
2022-10-07T05:57:34.878Z,73923.88
2022-10-07T05:58:09.769Z,73923.88
2022-10-07T05:58:42.156Z,73911.91
2022-10-07T05:59:15.013Z,73913.91
2022-10-07T05:59:52.121Z,73915.91
2022-10-07T06:00:25.377Z,73917.91
2022-10-07T06:01:04.803Z,73915.91
2022-10-07T06:01:42.297Z,73915.91
2022-10-07T06:02:22.674Z,73911.91
2022-10-07T06:02:55.252Z,73915.91
2022-10-07T06:03:27.759Z,73907.91
2022-10-07T06:04:05.731Z,73911.91
2022-10-07T06:04:39.161Z,73919.91
2022-10-07T06:05:14.642Z,73911.91
2022-10-07T06:05:47.164Z,73919.91
2022-10-07T06:06:19.576Z,73913.91
2022-10-07T06:06:56.809Z,73913.91
2022-10-07T06:07:29.784Z,73915.91
2022-10-07T06:08:03.841Z,73915.91
2022-10-07T06:08:39.382Z,73919.91
2022-10-07T06:09:27.274Z,73917.91
2022-10-07T06:10:15.308Z,73915.91
2022-10-07T06:11:03.313Z,73923.88
2022-10-07T06:11:50.627Z,73923.88
2022-10-07T06:12:38.131Z,73913.91
2022-10-07T06:13:15.218Z,73927.88
2022-10-07T06:13:51.220Z,73919.91
2022-10-07T06:14:24.565Z,73923.88
2022-10-07T06:14:56.843Z,73925.88
2022-10-07T06:15:33.369Z,73923.88
2022-10-07T06:16:08.033Z,73919.91
2022-10-07T06:16:43.022Z,73923.88
2022-10-07T06:17:17.909Z,73919.91
2022-10-07T06:17:51.899Z,73921.88
2022-10-07T06:18:25.343Z,73923.88
2022-10-07T06:19:00.326Z,73917.91
2022-10-07T06:19:37.176Z,73921.88
2022-10-07T06:20:10.313Z,73927.88
2022-10-07T06:20:45.221Z,73923.88
2022-10-07T06:21:17.657Z,73917.91
2022-10-07T06:21:51.293Z,73917.91
2022-10-07T06:22:26.466Z,73917.91
2022-10-07T06:22:59.033Z,73921.88
2022-10-07T06:23:36.045Z,73919.91
2022-10-07T06:24:10.339Z,73909.91
2022-10-07T06:24:43.513Z,73919.91
2022-10-07T06:25:18.871Z,73923.88
2022-10-07T06:25:59.522Z,73919.91
2022-10-07T06:26:35.920Z,73919.91
2022-10-07T06:27:08.905Z,73923.88
2022-10-07T06:27:41.874Z,73923.88
2022-10-07T06:28:17.499Z,73919.91
2022-10-07T06:28:50.263Z,73919.91
2022-10-07T06:29:22.990Z,73923.88
2022-10-07T06:29:58.081Z,73927.88
2022-10-07T06:30:31.078Z,73923.88
2022-10-07T06:31:07.241Z,73925.88
2022-10-07T06:31:46.695Z,73923.88
2022-10-07T06:32:18.935Z,73923.88
2022-10-07T06:32:51.242Z,73923.88
2022-10-07T06:33:26.518Z,73927.88
2022-10-07T06:33:58.749Z,73927.88
2022-10-07T06:34:31.382Z,73923.88
2022-10-07T06:35:06.698Z,73929.88
2022-10-07T06:35:38.961Z,73927.88
2022-10-07T06:36:11.996Z,73927.88
2022-10-07T06:36:47.222Z,73923.88
2022-10-07T06:37:21.030Z,73915.91
2022-10-07T06:37:53.322Z,73923.88
2022-10-07T06:38:28.183Z,73927.88
2022-10-07T06:39:00.462Z,73921.88
2022-10-07T06:39:38.170Z,73919.91
2022-10-07T06:40:14.021Z,73917.91
2022-10-07T06:40:59.078Z,73927.88
2022-10-07T06:41:36.389Z,73911.91
2022-10-07T06:42:31.738Z,73913.91
2022-10-07T06:43:25.238Z,73915.91
2022-10-07T06:44:06.911Z,73915.91
2022-10-07T06:44:40.684Z,73917.91
2022-10-07T06:45:19.902Z,73915.91
2022-10-07T06:45:58.817Z,73915.91
2022-10-07T06:46:31.369Z,73915.91
2022-10-07T06:47:11.639Z,73909.91
2022-10-07T06:47:45.954Z,73907.91
2022-10-07T06:48:19.365Z,73907.91
2022-10-07T06:48:54.190Z,73911.91
2022-10-07T06:49:26.636Z,73907.91
2022-10-07T06:49:59.726Z,73907.91
2022-10-07T06:50:34.877Z,73903.91
2022-10-07T06:51:07.151Z,73899.94
2022-10-07T06:51:39.943Z,73903.91
2022-10-07T06:52:14.893Z,73901.94
2022-10-07T06:52:47.742Z,73907.91
2022-10-07T06:53:20.112Z,73907.91
2022-10-07T06:53:58.055Z,73903.91
2022-10-07T06:54:31.850Z,73899.94
2022-10-07T06:55:04.889Z,73901.94
2022-10-07T06:55:41.081Z,73907.91
2022-10-07T06:56:14.251Z,73903.91
2022-10-07T06:56:48.550Z,73905.91
2022-10-07T06:58:15.926Z,73905.91
2022-10-07T06:58:52.208Z,73903.91
2022-10-07T06:59:33.513Z,73911.91
2022-10-07T07:00:16.717Z,73907.91
2022-10-07T07:00:50.368Z,73905.91
2022-10-07T07:01:22.993Z,73907.91
2022-10-07T07:01:58.244Z,73907.91
2022-10-07T07:02:34.248Z,73903.91
2022-10-07T07:03:06.917Z,73905.91
2022-10-07T07:03:42.951Z,73901.94
2022-10-07T07:04:15.647Z,73903.91
2022-10-07T07:04:48.096Z,73901.94
2022-10-07T07:05:23.105Z,73899.94